METAR Analyzer

一覧表示

Hello, Guest. (Login)

EDDF/FRA  -  フランクフルト

観測日時
2021-05-15 17:50 (UTC) (36分前)
気温
13
露点
8
湿数
5
相対湿度
71.6%
QNH
1003hPa
推定現地気圧
989.8hPa
推定海面気圧
1003.0hPa
体感温度
2.8
(無風時)
15
HI
12.2
気温前日比
-3
体感温度前日比
-6.5
HI前日比
-2.8
水平視程
>10000m
鉛直視程
データなし
雲底高度
No dense clouds
V/I
VMC (VFR)
RVR
No RVR data
卓越風
11kt from 200°
ガスト
No gust
降水
報告なし
その他の天気
報告なし
散在する雲 @ 3400ft AGL

EDDF 151750Z 20011KT 9999 SCT034 13/08 Q1003 NOSIG

EDDM/MUC  -  ミュンヘン

観測日時
2021-05-15 17:50 (UTC) (36分前)
気温
13
露点
10
湿数
3
相対湿度
82%
QNH
1005hPa
推定現地気圧
952.1hPa
推定海面気圧
1004.7hPa
体感温度
5.6
(無風時)
15.1
HI
12.5
気温前日比
-3
体感温度前日比
-5.2
HI前日比
-2.5
水平視程
>10000m
鉛直視程
データなし
雲底高度
4300ft AGL
V/I
VMC (VFR)
RVR
No RVR data
卓越風
5kt from 230°
ガスト
No gust
降水
弱い雨
その他の天気
報告なし
隙間のある雲 @ 4300ft AGL

EDDM 151750Z 23005KT 9999 -RA BKN043 13/10 Q1005 NOSIG

EDDL/DUS  -  デュッセルドルフ

観測日時
2021-05-15 17:50 (UTC) (36分前)
気温
13
露点
10
湿数
3
相対湿度
82%
QNH
1000hPa
推定現地気圧
994.7hPa
推定海面気圧
1000.1hPa
体感温度
4.3
(無風時)
15.1
HI
12.5
気温前日比
-2
体感温度前日比
-6.8
HI前日比
-1.8
水平視程
>10000m
鉛直視程
データなし
雲底高度
No dense clouds
V/I
VMC (VFR)
RVR
No RVR data
卓越風
7kt from 150°
ガスト
No gust
降水
しゅう雨性の (周辺において)
その他の天気
報告なし
少しの積乱雲 @ 2800ft AGL

EDDL 151750Z 15007KT 9999 VCSH FEW028CB 13/10 Q1000 NOSIG

LFPG/CDG  -  パリ=シャルル・ド・ゴール

観測日時
2021-05-15 18:00 (UTC) (26分前)
気温
14
露点
8
湿数
6
相対湿度
67.1%
QNH
1003hPa
推定現地気圧
988.9hPa
推定海面気圧
1003.0hPa
体感温度
4.5
(無風時)
15.7
HI
13.2
気温前日比
+1
体感温度前日比
±0
HI前日比
+1
水平視程
>10000m
鉛直視程
データなし
雲底高度
No dense clouds
V/I
VMC (VFR)
RVR
No RVR data
卓越風
10kt from 250°
ガスト
No gust
降水
報告なし
その他の天気
報告なし
少しの雲 @ 4000ft AGL / 散在する雲 @ 6300ft AGL

LFPG 151800Z 25010KT 9999 FEW040 SCT063 14/08 Q1003 NOSIG

EGLL/LHR  -  ロンドン・ヒースロー

観測日時
2021-05-15 17:50 (UTC) (36分前)
気温
13
露点
8
湿数
5
相対湿度
71.6%
QNH
998hPa
推定現地気圧
995.0hPa
推定海面気圧
998.0hPa
体感温度
3.6
(無風時)
15
HI
12.2
気温前日比
+1
体感温度前日比
-4.5
HI前日比
+1.2
水平視程
>10000m
鉛直視程
データなし
雲底高度
3300ft AGL
V/I
VMC (VFR)
RVR
No RVR data
卓越風
9kt from 230°
ガスト
No gust
降水
報告なし
降水 (一時)
中程度のしゅう雨性の雨
その他の天気
報告なし
散在する雲 @ 2900ft AGL / 隙間のある雲 @ 3300ft AGL /  積乱雲 @ 不明な高さ

EGLL 151750Z AUTO 23009KT 9999 SCT029/// BKN033/// //////CB 13/08 Q0998 TEMPO SHRA

9.7msec